Acadia National Park, ME

4:08 PM EST on February 28, 2015 (GMT -0500)
Hancock County-Bar Harbor | Change Station
CLOSE
Current Station
Airport
Location: Bar Harbor,
Elevation: 82 ft
Nearby Weather Stations

Elev 82 ft 44.45 °N, 68.36 °W | Updated 13 minutes ago

Clear
Clear
27 °F
Feels Like 16 °F
N
12
Wind Variable Wind from SSW

Today
High -- | Low -- °F
--% Chance of Precip.
Yesterday
High -- | Low -- °F
Precip. -- in
6:12 AM 5:19 PM
Waxing Gibbous, 80% visible
Pressure 30.62 in
Visibility 10.0 miles
Clouds Clear
Windchill 16 °F
Dew Point 3 °F
Humidity 37%
Rainfall 0.00 in
Snow Depth Not available.
UV 1 out of 12
Pollen .10 out of 12
Air Quality Not available.
Flu Activity Not available.
METAR KBHB 282055Z 20010KT 10SM CLR M03/M16 A3062 RMK AO1 57007

More Conditions Fewer Conditions

Pressure 30.62 in
Visibility 10.0 miles
Clouds Clear
Windchill 16 °F
Dew Point 3 °F
Humidity 37%
Rainfall 0.00 in
Snow Depth Not available.
UV 1 out of 12
Pollen .10 out of 12
Air Quality Not available.
Flu Activity Not available.
METAR KBHB 282055Z 20010KT 10SM CLR M03/M16 A3062 RMK AO1 57007

More Conditions Fewer Conditions

10-Day Weather Forecast

Almanac

Astronomy

Feb. 28, 2015 Rise Set
Actual Time
Civil Twilight
Nautical Twilight
Astronomical Twilight
Moon
Length of Visible Light
Length of Day
Tomorrow will be .
, % of the Moon is Illuminated

Today's Extremes

State Highs State Lows

Community

WunderPhotos

Upload Photos

1,801,150 photos uploaded!

WunderBlogs® & News

Nearby

Air Quality

  Air Quality AQ Index Pollutant
Not available.

Snow Depth

Station Depth Elevation

Earthquake Activity

City Distance Mag. Time & Date
Minimum magnitude displayed is 2.5.

Coastal Water Temperatures

Place Temperature

Nearby Weather Stations